GCCYG EGCM-EGCM
Flight info
| Callsign | GCCYG |
|---|---|
| Flight time | 0h 3m |
| Altitude | 700 |
| Route | VFR |
| Aircraft | R44/L-VGD/A |
Departure
| Time | 2026-04-24 16:57 |
|---|---|
| Airport | Leeds East Airport (EGCM) |
Arrival
| Time | 2026-04-24 17:00 |
|---|---|
| Airport | Leeds East Airport (EGCM) |
| Time | Latitude | Longitude | Altitude | Speed | Heading |
|---|---|---|---|---|---|
| 2026-04-24 16:49 | 53.83361 | -1.20148 | 27 ft | 0 kts | 179° |
| 2026-04-24 16:56 | 53.83319 | -1.20120 | 36 ft | 7 kts | 124° |
| 2026-04-24 16:56 | 53.83357 | -1.19762 | 40 ft | 69 kts | 56° |
| 2026-04-24 16:57 | 53.83632 | -1.19104 | 294 ft | 65 kts | 55° |
| 2026-04-24 16:57 | 53.83884 | -1.18521 | 532 ft | 67 kts | 56° |
| 2026-04-24 16:57 | 53.84112 | -1.17810 | 647 ft | 75 kts | 88° |
| 2026-04-24 16:57 | 53.83753 | -1.17146 | 654 ft | 88 kts | 152° |
| 2026-04-24 16:58 | 53.83177 | -1.16742 | 698 ft | 93 kts | 155° |
| 2026-04-24 16:58 | 53.82542 | -1.16470 | 697 ft | 98 kts | 184° |
| 2026-04-24 16:58 | 53.82078 | -1.17358 | 655 ft | 106 kts | 240° |
| 2026-04-24 16:58 | 53.81795 | -1.18534 | 654 ft | 111 kts | 247° |
| 2026-04-24 16:59 | 53.81609 | -1.19786 | 707 ft | 108 kts | 253° |
| 2026-04-24 16:59 | 53.81437 | -1.21037 | 740 ft | 106 kts | 252° |
| 2026-04-24 16:59 | 53.82178 | -1.22421 | 697 ft | 77 kts | 351° |
| 2026-04-24 17:00 | 53.82504 | -1.21911 | 636 ft | 66 kts | 66° |
| 2026-04-24 17:00 | 53.82996 | -1.20651 | 281 ft | 66 kts | 53° |
| 2026-04-24 17:00 | 53.83231 | -1.20086 | 41 ft | 19 kts | 52° |
| 2026-04-24 17:01 | 53.83270 | -1.19988 | 46 ft | 38 kts | 62° |
| 2026-04-24 17:01 | 53.83458 | -1.19472 | 314 ft | 50 kts | 54° |
| 2026-04-24 17:02 | 53.83978 | -1.18272 | 710 ft | 67 kts | 56° |
| 2026-04-24 17:02 | 53.83877 | -1.17610 | 703 ft | 77 kts | 141° |
| 2026-04-24 17:02 | 53.83338 | -1.17229 | 673 ft | 88 kts | 155° |
| 2026-04-24 17:02 | 53.82728 | -1.17064 | 692 ft | 95 kts | 191° |
| 2026-04-24 17:03 | 53.82168 | -1.19075 | 718 ft | 91 kts | 251° |
| 2026-04-24 17:03 | 53.82164 | -1.19971 | 399 ft | 69 kts | 338° |
| 2026-04-24 17:03 | 53.82485 | -1.19796 | 85 ft | 58 kts | 65° |
| 2026-04-24 17:04 | 53.82336 | -1.19914 | 361 ft | 59 kts | 239° |
| 2026-04-24 17:04 | 53.82162 | -1.21429 | 655 ft | 86 kts | 318° |
| 2026-04-24 17:04 | 53.82661 | -1.21510 | 708 ft | 72 kts | 52° |
| 2026-04-24 17:05 | 53.82930 | -1.20827 | 667 ft | 62 kts | 54° |
| 2026-04-24 17:05 | 53.83162 | -1.20257 | 308 ft | 65 kts | 54° |
| 2026-04-24 17:05 | 53.83365 | -1.19778 | 28 ft | 0 kts | 55° |
| 2026-04-24 17:06 | 53.83366 | -1.19780 | 36 ft | 2 kts | 35° |
| 2026-04-24 17:06 | 53.83733 | -1.18890 | 336 ft | 55 kts | 60° |
| 2026-04-24 17:06 | 53.83972 | -1.18262 | 545 ft | 71 kts | 74° |
| 2026-04-24 17:07 | 53.83832 | -1.17738 | 495 ft | 88 kts | 139° |
| 2026-04-24 17:07 | 53.83093 | -1.17292 | 662 ft | 77 kts | 161° |
| 2026-04-24 17:07 | 53.82854 | -1.16474 | 38 ft | 35 kts | 90° |
| 2026-04-24 17:08 | 53.82327 | -1.16087 | 383 ft | 73 kts | 216° |
| 2026-04-24 17:08 | 53.82081 | -1.16902 | 499 ft | 85 kts | 235° |
| 2026-04-24 17:08 | 53.81806 | -1.17826 | 628 ft | 85 kts | 242° |
| 2026-04-24 17:09 | 53.81517 | -1.19647 | 952 ft | 86 kts | 257° |
| 2026-04-24 17:09 | 53.81756 | -1.21617 | 964 ft | 87 kts | 325° |
| 2026-04-24 17:10 | 53.82216 | -1.22005 | 578 ft | 77 kts | 10° |
| 2026-04-24 17:10 | 53.83185 | -1.20142 | 644 ft | 76 kts | 56° |
| 2026-04-24 17:11 | 53.84062 | -1.17806 | 300 ft | 65 kts | 69° |
| 2026-04-24 17:12 | 53.82661 | -1.17694 | 745 ft | 99 kts | 239° |